Time;durP1;ratioP1;P1;durP2;ratioP2;P2;SDS_P1;SDS_P2;PMS_P1;PMS_P2;Temp;Humidity;BMP_temperature;BMP_pressure;BME280_temperature;BME280_humidity;BME280_pressure;Samples;Min_cycle;Max_cycle;Signal;HPM_P1;HPM_P2
2021/12/02 00:00:41;;;;;;;1.25;0.50;;;;;;;;;;4991122;28;20046;-64
2021/12/02 00:03:09;;;;;;;5.75;0.63;;;;;;;;;;4992298;28;20074;-63
2021/12/02 00:05:36;;;;;;;1.75;0.60;;;;;;;;;;4992233;28;20505;-64
2021/12/02 00:08:03;;;;;;;2.00;0.60;;;;;;;;;;4991236;28;20398;-63
2021/12/02 00:10:31;;;;;;;2.72;1.75;;;;;;;;;;5007300;28;20050;-63
2021/12/02 00:12:58;;;;;;;0.85;0.50;;;;;;;;;;5011945;28;20045;-64
2021/12/02 00:15:32;;;;;;;3.45;0.50;;;;;;;;;;5012037;28;20112;-63
2021/12/02 00:23:29;;;;;;;4.10;0.95;;;;;;;;;;5007276;28;20500;-64
2021/12/02 00:25:57;;;;;;;3.38;0.90;;;;;;;;;;5009805;28;20050;-64
2021/12/02 00:28:27;;;;;;;1.23;0.80;;;;;;;;;;5011851;28;20050;-63
2021/12/02 00:30:58;;;;;;;2.53;0.80;;;;;;;;;;5009176;28;20046;-64
2021/12/02 00:33:26;;;;;;;2.28;0.70;;;;;;;;;;5010210;28;20124;-63
2021/12/02 00:35:53;;;;;;;1.10;0.65;;;;;;;;;;5010446;28;20128;-63
2021/12/02 00:38:21;;;;;;;1.85;0.73;;;;;;;;;;5010684;28;20054;-64
2021/12/02 00:40:48;;;;;;;1.40;0.70;;;;;;;;;;5011487;28;20583;-63
2021/12/02 00:43:15;;;;;;;3.25;0.70;;;;;;;;;;5015382;28;20046;-63
2021/12/02 00:45:43;;;;;;;3.63;0.75;;;;;;;;;;5011018;28;20125;-64
2021/12/02 00:48:11;;;;;;;5.78;1.00;;;;;;;;;;4995878;28;20050;-63
2021/12/02 00:50:39;;;;;;;0.98;0.57;;;;;;;;;;4994405;28;20050;-63
2021/12/02 00:53:06;;;;;;;1.40;0.65;;;;;;;;;;4995593;28;20104;-64
2021/12/02 00:55:38;;;;;;;1.30;0.60;;;;;;;;;;4995678;28;20049;-63
2021/12/02 00:58:06;;;;;;;2.20;0.65;;;;;;;;;;4985096;28;20452;-64
2021/12/02 01:00:33;;;;;;;1.75;0.70;;;;;;;;;;5015135;28;20104;-63
2021/12/02 01:03:01;;;;;;;2.08;0.68;;;;;;;;;;5013638;28;20050;-63
2021/12/02 01:05:30;;;;;;;3.00;0.77;;;;;;;;;;5015169;28;20057;-63
2021/12/02 01:07:59;;;;;;;1.23;0.98;;;;;;;;;;4997671;28;20127;-63
2021/12/02 01:10:26;;;;;;;1.83;0.80;;;;;;;;;;5012936;28;20568;-63
2021/12/02 01:12:52;;;;;;;1.38;0.38;;;;;;;;;;5014562;28;20046;-64
2021/12/02 01:15:19;;;;;;;3.03;0.68;;;;;;;;;;5015040;28;20496;-64
2021/12/02 01:17:46;;;;;;;0.70;0.35;;;;;;;;;;5014780;28;20355;-64
2021/12/02 01:20:12;;;;;;;3.75;0.50;;;;;;;;;;5014729;28;20100;-63
2021/12/02 01:22:39;;;;;;;1.00;0.50;;;;;;;;;;5014585;28;20088;-64
2021/12/02 01:25:06;;;;;;;1.27;0.52;;;;;;;;;;5013733;28;20501;-64
2021/12/02 01:27:36;;;;;;;2.03;0.63;;;;;;;;;;5014552;28;20049;-64
2021/12/02 01:30:04;;;;;;;2.15;0.47;;;;;;;;;;4994259;28;20054;-64
2021/12/02 01:32:34;;;;;;;1.60;0.47;;;;;;;;;;4993719;28;20046;-63
2021/12/02 01:35:04;;;;;;;3.00;0.65;;;;;;;;;;4977857;28;20471;-64
2021/12/02 01:37:31;;;;;;;1.55;0.55;;;;;;;;;;4994855;28;20053;-63
2021/12/02 01:39:58;;;;;;;1.65;0.60;;;;;;;;;;4995150;28;20050;-63
2021/12/02 01:42:27;;;;;;;1.42;0.40;;;;;;;;;;5012726;28;20042;-63
2021/12/02 01:44:57;;;;;;;2.00;0.50;;;;;;;;;;5013209;28;20054;-63
2021/12/02 01:47:28;;;;;;;1.58;0.60;;;;;;;;;;5014230;28;20101;-63
2021/12/02 01:49:59;;;;;;;1.15;0.93;;;;;;;;;;5012841;28;20054;-63
2021/12/02 01:52:30;;;;;;;0.90;0.50;;;;;;;;;;5010959;28;20459;-63
2021/12/02 01:55:23;;;;;;;1.42;0.40;;;;;;;;;;4993090;28;20058;-63
2021/12/02 01:58:00;;;;;;;0.40;0.30;;;;;;;;;;4993092;28;20488;-63
2021/12/02 02:00:47;;;;;;;2.55;0.60;;;;;;;;;;5009256;28;20461;-63
2021/12/02 02:03:16;;;;;;;2.05;0.68;;;;;;;;;;4993196;28;20568;-64
2021/12/02 02:05:43;;;;;;;1.88;0.60;;;;;;;;;;4993036;28;20050;-63
2021/12/02 02:08:18;;;;;;;2.75;0.40;;;;;;;;;;4993033;28;20096;-63
2021/12/02 02:10:45;;;;;;;0.90;0.73;;;;;;;;;;4993286;28;20046;-64
2021/12/02 02:13:13;;;;;;;1.23;0.65;;;;;;;;;;4994050;28;20050;-63
2021/12/02 02:15:44;;;;;;;2.78;0.65;;;;;;;;;;4994163;28;20054;-64
2021/12/02 02:18:24;;;;;;;1.23;0.50;;;;;;;;;;5010178;28;20050;-64
2021/12/02 02:23:20;;;;;;;3.05;0.80;;;;;;;;;;5013413;28;20105;-64
2021/12/02 02:25:48;;;;;;;2.25;0.50;;;;;;;;;;5012507;28;20050;-64
2021/12/02 02:28:15;;;;;;;2.90;0.50;;;;;;;;;;5013455;28;20127;-64
2021/12/02 02:30:42;;;;;;;2.38;0.60;;;;;;;;;;5013213;28;20054;-63
2021/12/02 02:33:11;;;;;;;2.13;0.50;;;;;;;;;;5012143;28;20050;-64
2021/12/02 02:35:39;;;;;;;2.30;0.40;;;;;;;;;;5013341;28;20050;-64
2021/12/02 02:38:05;;;;;;;1.38;0.50;;;;;;;;;;5013285;28;20053;-64
2021/12/02 02:40:33;;;;;;;0.70;0.38;;;;;;;;;;5013235;28;20053;-64
2021/12/02 02:43:05;;;;;;;2.50;0.50;;;;;;;;;;5013101;28;20057;-64
2021/12/02 02:45:32;;;;;;;1.85;0.30;;;;;;;;;;5013171;28;20057;-63
2021/12/02 02:47:58;;;;;;;0.95;0.35;;;;;;;;;;5013010;28;20276;-64
2021/12/02 02:50:25;;;;;;;2.72;0.50;;;;;;;;;;5013016;28;20057;-64
2021/12/02 02:53:12;;;;;;;1.27;0.40;;;;;;;;;;5012761;28;20100;-64
2021/12/02 02:55:40;;;;;;;0.60;0.57;;;;;;;;;;5013294;28;20100;-64
2021/12/02 03:01:32;;;;;;;0.52;0.32;;;;;;;;;;5012768;28;20088;-64
2021/12/02 03:04:22;;;;;;;0.30;0.20;;;;;;;;;;5012458;28;20659;-63
2021/12/02 03:06:57;;;;;;;1.52;0.40;;;;;;;;;;5011757;28;20069;-64
2021/12/02 03:11:58;;;;;;;0.70;0.30;;;;;;;;;;5012604;28;20111;-64
2021/12/02 03:14:36;;;;;;;1.45;0.20;;;;;;;;;;5012635;28;20046;-64
2021/12/02 03:17:03;;;;;;;2.55;0.50;;;;;;;;;;4977531;28;20061;-64
2021/12/02 03:19:30;;;;;;;1.88;0.52;;;;;;;;;;4992966;28;20465;-64
2021/12/02 03:21:57;;;;;;;1.80;0.40;;;;;;;;;;4992892;28;20112;-64
2021/12/02 03:24:24;;;;;;;1.08;0.50;;;;;;;;;;4992857;28;20050;-63
2021/12/02 03:26:51;;;;;;;0.75;0.30;;;;;;;;;;4993554;28;20058;-63
2021/12/02 03:29:17;;;;;;;1.48;0.30;;;;;;;;;;4992724;28;20109;-63
2021/12/02 03:31:44;;;;;;;0.40;0.30;;;;;;;;;;5031134;22;20500;-65
2021/12/02 03:34:11;;;;;;;0.38;0.20;;;;;;;;;;5012334;28;20129;-65
2021/12/02 03:36:38;;;;;;;0.38;0.20;;;;;;;;;;5012265;28;20080;-65
2021/12/02 03:39:07;;;;;;;1.17;0.40;;;;;;;;;;5012422;28;20054;-65
2021/12/02 03:41:34;;;;;;;1.90;0.60;;;;;;;;;;5010534;28;20049;-64
2021/12/02 03:44:01;;;;;;;1.05;0.25;;;;;;;;;;5012067;28;20046;-65
2021/12/02 03:46:27;;;;;;;0.47;0.30;;;;;;;;;;5012050;28;20050;-65
2021/12/02 03:48:55;;;;;;;3.25;0.68;;;;;;;;;;5011665;28;20534;-65
2021/12/02 03:51:22;;;;;;;1.10;1.00;;;;;;;;;;5003345;28;20108;-65
2021/12/02 03:53:49;;;;;;;1.23;0.47;;;;;;;;;;5011633;28;20076;-64
2021/12/02 03:56:15;;;;;;;0.65;0.20;;;;;;;;;;5012365;28;20053;-64
2021/12/02 03:58:43;;;;;;;0.73;0.32;;;;;;;;;;5011899;28;20561;-64
2021/12/02 04:01:10;;;;;;;1.60;0.50;;;;;;;;;;5012019;28;20057;-65
2021/12/02 04:03:37;;;;;;;1.60;0.40;;;;;;;;;;5012071;28;20046;-65
2021/12/02 04:06:05;;;;;;;2.72;1.10;;;;;;;;;;5012255;28;20061;-65
2021/12/02 04:11:39;;;;;;;0.40;0.40;;;;;;;;;;5011801;28;20058;-65
2021/12/02 04:17:29;;;;;;;3.53;1.13;;;;;;;;;;5013352;28;20057;-64
2021/12/02 04:19:40;;;;;;;2.47;0.77;;;;;;;;;;5013632;28;20586;-64
2021/12/02 04:22:06;;;;;;;2.08;0.70;;;;;;;;;;5015767;28;20559;-65
2021/12/02 04:24:33;;;;;;;0.93;0.57;;;;;;;;;;5015640;28;20046;-65
2021/12/02 04:27:00;;;;;;;3.80;0.95;;;;;;;;;;5015568;28;20054;-64
2021/12/02 04:29:27;;;;;;;0.93;0.35;;;;;;;;;;5015880;28;20053;-64
2021/12/02 04:31:54;;;;;;;1.52;0.40;;;;;;;;;;5015534;28;20053;-64
2021/12/02 04:34:21;;;;;;;1.23;0.32;;;;;;;;;;5015947;28;20045;-64
2021/12/02 04:36:48;;;;;;;1.42;0.40;;;;;;;;;;5015918;28;20054;-64
2021/12/02 04:39:14;;;;;;;1.45;0.50;;;;;;;;;;5015692;28;20527;-64
2021/12/02 04:41:41;;;;;;;1.23;0.43;;;;;;;;;;5015364;28;20045;-65
2021/12/02 04:44:08;;;;;;;3.03;0.88;;;;;;;;;;5015266;28;20493;-64
2021/12/02 04:46:35;;;;;;;1.42;0.60;;;;;;;;;;5015457;28;20161;-64
2021/12/02 04:49:02;;;;;;;0.68;0.40;;;;;;;;;;5015217;28;20056;-65
2021/12/02 04:51:29;;;;;;;1.55;0.50;;;;;;;;;;5015417;28;20054;-65
2021/12/02 04:53:55;;;;;;;0.75;0.50;;;;;;;;;;5015177;28;20489;-65
2021/12/02 04:56:22;;;;;;;2.83;0.50;;;;;;;;;;5015331;28;20057;-65
2021/12/02 04:58:48;;;;;;;3.90;0.82;;;;;;;;;;5014922;28;20061;-65
2021/12/02 05:01:15;;;;;;;1.10;0.63;;;;;;;;;;5015117;28;20108;-65
2021/12/02 05:03:42;;;;;;;1.27;0.65;;;;;;;;;;5014849;28;20053;-65
2021/12/02 05:06:12;;;;;;;4.40;1.52;;;;;;;;;;5015239;28;20056;-64
2021/12/02 05:08:39;;;;;;;0.65;0.60;;;;;;;;;;5014664;28;20153;-64
2021/12/02 05:11:06;;;;;;;7.25;4.45;;;;;;;;;;5015004;28;20050;-64
2021/12/02 05:13:32;;;;;;;1.73;1.20;;;;;;;;;;5014558;28;20045;-64
2021/12/02 05:15:59;;;;;;;4.72;1.17;;;;;;;;;;5014825;28;20504;-64
2021/12/02 05:18:27;;;;;;;1.88;1.45;;;;;;;;;;5014231;28;20121;-64
2021/12/02 05:20:54;;;;;;;4.78;0.90;;;;;;;;;;5014645;28;20050;-64
2021/12/02 05:23:21;;;;;;;0.60;0.47;;;;;;;;;;5014853;28;20050;-64
2021/12/02 05:25:48;;;;;;;0.77;0.70;;;;;;;;;;5014786;28;20058;-64
2021/12/02 05:28:15;;;;;;;2.03;0.40;;;;;;;;;;5013501;28;20269;-65
2021/12/02 05:30:42;;;;;;;1.13;0.65;;;;;;;;;;5014276;28;20558;-64
2021/12/02 05:33:08;;;;;;;0.50;0.40;;;;;;;;;;5014455;28;20050;-64
2021/12/02 05:35:35;;;;;;;3.22;0.50;;;;;;;;;;5014639;28;20112;-65
2021/12/02 05:38:02;;;;;;;1.27;0.50;;;;;;;;;;5006882;28;20508;-65
2021/12/02 05:40:29;;;;;;;1.83;0.60;;;;;;;;;;4994822;28;20129;-65
2021/12/02 05:42:56;;;;;;;1.58;0.57;;;;;;;;;;4994896;28;20101;-65
2021/12/02 05:45:23;;;;;;;1.17;0.40;;;;;;;;;;4994875;28;20113;-65
2021/12/02 05:47:49;;;;;;;1.38;0.38;;;;;;;;;;4994629;28;20054;-65
2021/12/02 05:50:16;;;;;;;2.65;0.57;;;;;;;;;;4994680;28;20050;-64
2021/12/02 05:52:42;;;;;;;0.82;0.28;;;;;;;;;;4994271;28;20050;-65
2021/12/02 05:55:09;;;;;;;3.63;0.40;;;;;;;;;;4995070;28;20062;-65
2021/12/02 05:57:36;;;;;;;0.40;0.35;;;;;;;;;;4998084;28;20050;-65
2021/12/02 06:00:04;;;;;;;2.20;0.90;;;;;;;;;;5011888;28;20049;-64
2021/12/02 06:02:31;;;;;;;2.13;1.17;;;;;;;;;;4994359;28;20050;-64
2021/12/02 06:04:58;;;;;;;0.63;0.40;;;;;;;;;;4993183;28;20054;-65
2021/12/02 06:07:24;;;;;;;0.85;0.63;;;;;;;;;;4994391;28;20070;-64
2021/12/02 06:09:53;;;;;;;3.08;0.60;;;;;;;;;;4994037;28;20101;-65
2021/12/02 06:12:19;;;;;;;0.90;0.38;;;;;;;;;;4994254;28;20050;-65
2021/12/02 06:14:46;;;;;;;1.55;0.40;;;;;;;;;;4993877;28;20046;-65
2021/12/02 06:17:13;;;;;;;1.20;0.30;;;;;;;;;;4994322;28;20054;-64
2021/12/02 06:19:39;;;;;;;1.50;0.40;;;;;;;;;;4993786;28;20050;-65
2021/12/02 06:22:08;;;;;;;2.15;0.70;;;;;;;;;;4994320;28;20050;-65
2021/12/02 06:24:54;;;;;;;2.25;0.60;;;;;;;;;;4993944;28;20081;-65
2021/12/02 06:27:21;;;;;;;1.00;0.65;;;;;;;;;;5007372;28;20053;-64
2021/12/02 06:29:50;;;;;;;2.25;0.68;;;;;;;;;;4996156;28;20053;-65
2021/12/02 06:32:17;;;;;;;1.63;0.50;;;;;;;;;;5013449;28;20460;-64
2021/12/02 06:34:43;;;;;;;1.70;0.60;;;;;;;;;;5013183;28;20566;-65
2021/12/02 06:37:10;;;;;;;1.42;0.80;;;;;;;;;;5013539;28;20108;-65
2021/12/02 06:39:36;;;;;;;1.65;0.88;;;;;;;;;;5013173;28;20112;-64
2021/12/02 06:42:03;;;;;;;2.17;0.90;;;;;;;;;;5013622;28;20049;-64
2021/12/02 06:44:30;;;;;;;0.68;0.38;;;;;;;;;;5013060;28;20045;-65
2021/12/02 06:46:57;;;;;;;1.23;0.40;;;;;;;;;;5013122;28;20053;-64
2021/12/02 06:49:23;;;;;;;1.55;0.98;;;;;;;;;;5013071;28;20575;-65
2021/12/02 06:51:50;;;;;;;2.03;1.00;;;;;;;;;;5012960;28;20563;-64
2021/12/02 06:54:17;;;;;;;4.07;1.13;;;;;;;;;;5012927;28;20104;-65
2021/12/02 06:56:50;;;;;;;3.53;1.90;;;;;;;;;;5012909;28;20053;-64
2021/12/02 06:59:17;;;;;;;3.88;1.35;;;;;;;;;;5012959;28;20501;-65
2021/12/02 07:01:45;;;;;;;4.65;1.42;;;;;;;;;;5012136;28;20100;-65
2021/12/02 07:04:13;;;;;;;1.40;1.00;;;;;;;;;;5012860;28;20085;-65
2021/12/02 07:06:40;;;;;;;2.10;1.13;;;;;;;;;;5012829;28;20060;-65
2021/12/02 07:09:07;;;;;;;0.82;0.60;;;;;;;;;;5012951;28;20452;-64
2021/12/02 07:11:33;;;;;;;1.00;0.50;;;;;;;;;;5012824;28;20046;-65
2021/12/02 07:14:03;;;;;;;0.45;0.40;;;;;;;;;;5012236;28;20405;-64
2021/12/02 07:16:32;;;;;;;2.53;0.70;;;;;;;;;;5012824;28;20393;-65
2021/12/02 07:19:02;;;;;;;0.70;0.30;;;;;;;;;;5012416;28;20050;-64
2021/12/02 07:21:30;;;;;;;0.75;0.50;;;;;;;;;;5011415;28;20049;-64
2021/12/02 07:23:57;;;;;;;7.28;3.38;;;;;;;;;;5012238;28;20065;-65
2021/12/02 07:26:23;;;;;;;4.30;1.83;;;;;;;;;;5005458;28;20050;-65
2021/12/02 07:28:50;;;;;;;7.30;2.58;;;;;;;;;;4992627;28;20050;-65
2021/12/02 07:31:17;;;;;;;3.45;1.77;;;;;;;;;;4992901;28;20093;-64
2021/12/02 07:33:48;;;;;;;2.10;1.02;;;;;;;;;;4991217;28;20046;-64
2021/12/02 07:36:15;;;;;;;1.48;0.90;;;;;;;;;;4992889;28;20058;-65
2021/12/02 07:38:42;;;;;;;1.85;0.68;;;;;;;;;;5012009;28;20049;-65
2021/12/02 07:41:09;;;;;;;1.77;0.77;;;;;;;;;;5011078;28;20100;-64
2021/12/02 07:43:38;;;;;;;1.70;0.85;;;;;;;;;;5012108;28;20046;-64
2021/12/02 07:46:05;;;;;;;1.05;0.73;;;;;;;;;;5012307;28;20112;-63
2021/12/02 07:48:33;;;;;;;1.60;0.57;;;;;;;;;;5012233;28;20050;-65
2021/12/02 07:51:01;;;;;;;2.15;0.70;;;;;;;;;;5008339;28;20057;-64
2021/12/02 07:53:29;;;;;;;1.33;0.60;;;;;;;;;;5009195;28;20570;-64
2021/12/02 07:55:56;;;;;;;0.95;0.70;;;;;;;;;;5009735;28;20708;-65
2021/12/02 07:58:24;;;;;;;0.95;0.57;;;;;;;;;;5009929;28;20446;-65
2021/12/02 08:00:51;;;;;;;4.05;0.88;;;;;;;;;;5008301;28;20104;-64
2021/12/02 08:03:17;;;;;;;3.00;0.82;;;;;;;;;;4989972;28;20517;-64
2021/12/02 08:05:45;;;;;;;1.58;0.60;;;;;;;;;;4988785;28;20088;-64
2021/12/02 08:08:11;;;;;;;0.85;0.68;;;;;;;;;;4990691;28;20054;-64
2021/12/02 08:10:38;;;;;;;1.23;0.65;;;;;;;;;;4990155;28;20101;-65
2021/12/02 08:13:05;;;;;;;2.28;0.90;;;;;;;;;;4995907;28;20456;-65
2021/12/02 08:15:32;;;;;;;1.13;0.68;;;;;;;;;;5008914;28;20054;-64
2021/12/02 08:17:59;;;;;;;2.03;0.77;;;;;;;;;;4989833;28;20421;-64
2021/12/02 08:20:26;;;;;;;3.50;0.82;;;;;;;;;;4990648;28;20046;-64
2021/12/02 08:22:53;;;;;;;0.77;0.77;;;;;;;;;;4990025;28;20050;-64
2021/12/02 08:25:20;;;;;;;2.35;1.10;;;;;;;;;;4990101;28;20050;-63
2021/12/02 08:27:48;;;;;;;1.85;0.63;;;;;;;;;;4990520;28;20054;-63
2021/12/02 08:30:16;;;;;;;2.67;1.45;;;;;;;;;;4989506;28;20124;-63
2021/12/02 08:32:45;;;;;;;1.20;1.02;;;;;;;;;;4990495;28;20112;-63
2021/12/02 08:35:13;;;;;;;1.80;0.63;;;;;;;;;;5009866;28;20060;-63
2021/12/02 08:37:47;;;;;;;1.23;0.70;;;;;;;;;;5009619;28;20060;-63
2021/12/02 08:40:19;;;;;;;1.58;0.82;;;;;;;;;;5009711;28;20169;-62
2021/12/02 08:42:47;;;;;;;2.35;0.65;;;;;;;;;;5008216;28;20058;-63
2021/12/02 08:45:15;;;;;;;2.55;0.68;;;;;;;;;;4991615;28;20549;-62
2021/12/02 08:47:45;;;;;;;1.40;1.17;;;;;;;;;;4990078;28;20062;-62
2021/12/02 08:50:14;;;;;;;2.75;0.88;;;;;;;;;;4989907;28;20050;-61
2021/12/02 08:52:41;;;;;;;2.08;1.17;;;;;;;;;;4989767;28;20102;-63
2021/12/02 08:55:08;;;;;;;1.55;0.93;;;;;;;;;;4989709;28;20046;-63
2021/12/02 08:57:48;;;;;;;1.15;0.70;;;;;;;;;;4989397;28;20055;-63
2021/12/02 09:00:17;;;;;;;2.63;1.00;;;;;;;;;;4993603;28;20054;-63
2021/12/02 09:02:44;;;;;;;0.88;0.80;;;;;;;;;;5009842;28;20030;-63
2021/12/02 09:05:13;;;;;;;2.08;1.50;;;;;;;;;;5015286;28;20038;-64
2021/12/02 09:07:40;;;;;;;1.83;0.93;;;;;;;;;;5007000;28;20050;-63
2021/12/02 09:10:08;;;;;;;1.85;1.20;;;;;;;;;;5007123;28;20464;-63
2021/12/02 09:12:35;;;;;;;3.38;1.00;;;;;;;;;;5005470;28;20101;-63
2021/12/02 09:15:04;;;;;;;0.82;0.52;;;;;;;;;;5008266;28;20076;-65
2021/12/02 09:17:31;;;;;;;1.38;0.70;;;;;;;;;;5008389;28;20054;-68
2021/12/02 09:19:57;;;;;;;2.47;0.80;;;;;;;;;;5020240;28;21230;-65
2021/12/02 09:22:24;;;;;;;3.20;1.58;;;;;;;;;;5026411;28;20101;-63
2021/12/02 09:24:51;;;;;;;2.47;1.30;;;;;;;;;;5022919;28;20045;-62
2021/12/02 09:27:18;;;;;;;1.50;1.10;;;;;;;;;;5006123;28;20465;-66
2021/12/02 09:29:45;;;;;;;1.60;0.90;;;;;;;;;;5003053;28;20050;-66
2021/12/02 09:32:12;;;;;;;2.65;1.20;;;;;;;;;;4998694;28;20692;-68
2021/12/02 09:34:38;;;;;;;1.45;0.77;;;;;;;;;;5006590;28;20082;-68
2021/12/02 09:37:06;;;;;;;2.78;1.20;;;;;;;;;;4998504;28;20046;-68
2021/12/02 09:39:34;;;;;;;3.83;0.88;;;;;;;;;;5000262;28;20045;-68
2021/12/02 09:42:01;;;;;;;3.45;1.27;;;;;;;;;;5004540;28;20046;-67
2021/12/02 09:44:40;;;;;;;0.73;0.73;;;;;;;;;;5003413;28;20048;-65
2021/12/02 09:47:08;;;;;;;1.98;0.98;;;;;;;;;;5009442;28;20153;-70
2021/12/02 09:49:35;;;;;;;1.83;1.13;;;;;;;;;;5026313;28;20034;-68
2021/12/02 09:52:04;;;;;;;2.25;1.25;;;;;;;;;;5027600;28;20050;-67
2021/12/02 09:54:41;;;;;;;3.42;1.60;;;;;;;;;;5023573;28;20065;-67
2021/12/02 09:57:12;;;;;;;1.63;1.30;;;;;;;;;;5026496;28;20046;-66
2021/12/02 10:02:10;;;;;;;5.32;2.17;;;;;;;;;;5017794;28;20050;-64
2021/12/02 10:04:43;;;;;;;3.13;1.33;;;;;;;;;;5020634;28;20129;-63
2021/12/02 10:07:32;;;;;;;2.45;1.20;;;;;;;;;;5011342;28;20051;-64
2021/12/02 10:12:41;;;;;;;2.00;1.02;;;;;;;;;;5027250;28;20069;-68
2021/12/02 10:15:13;;;;;;;1.40;0.80;;;;;;;;;;5024820;28;20038;-68
2021/12/02 10:17:48;;;;;;;1.55;0.90;;;;;;;;;;5029309;28;20034;-67
2021/12/02 10:25:51;;;;;;;1.95;1.17;;;;;;;;;;5022121;28;20041;-71
2021/12/02 10:28:18;;;;;;;1.20;1.10;;;;;;;;;;5018463;28;20050;-64
2021/12/02 10:30:50;;;;;;;2.72;1.20;;;;;;;;;;5021823;28;20057;-66
2021/12/02 10:33:36;;;;;;;3.80;1.38;;;;;;;;;;5025410;28;20060;-69
2021/12/02 10:36:08;;;;;;;2.72;1.00;;;;;;;;;;5027358;28;20037;-68
2021/12/02 10:38:43;;;;;;;1.35;1.13;;;;;;;;;;5024668;28;20042;-67
2021/12/02 10:41:22;;;;;;;5.38;1.85;;;;;;;;;;5023002;28;20046;-67
2021/12/02 10:44:04;;;;;;;3.92;1.75;;;;;;;;;;5018209;28;20042;-67
2021/12/02 10:46:31;;;;;;;4.32;1.20;;;;;;;;;;5024529;28;20041;-68
2021/12/02 10:48:58;;;;;;;2.28;1.48;;;;;;;;;;5022510;28;20046;-67
2021/12/02 10:51:54;;;;;;;1.85;1.33;;;;;;;;;;5023577;28;20046;-66
2021/12/02 10:54:26;;;;;;;2.50;1.52;;;;;;;;;;5026654;28;20038;-68
2021/12/02 10:56:55;;;;;;;1.33;1.13;;;;;;;;;;5021099;28;20050;-65
2021/12/02 10:59:31;;;;;;;1.90;1.33;;;;;;;;;;5026661;28;20073;-65
2021/12/02 11:02:20;;;;;;;1.83;1.52;;;;;;;;;;5025888;28;20030;-66
2021/12/02 11:05:00;;;;;;;2.85;1.63;;;;;;;;;;5019140;28;20100;-64
2021/12/02 11:07:31;;;;;;;2.95;1.77;;;;;;;;;;5020643;28;20158;-65
2021/12/02 11:10:05;;;;;;;1.60;1.48;;;;;;;;;;5023888;28;20077;-68
2021/12/02 11:12:37;;;;;;;2.47;1.85;;;;;;;;;;5027026;28;20030;-69
2021/12/02 11:15:14;;;;;;;1.70;1.40;;;;;;;;;;5027455;28;20046;-69
2021/12/02 11:17:47;;;;;;;1.65;1.52;;;;;;;;;;5022042;28;20043;-69
2021/12/02 11:20:37;;;;;;;1.60;1.50;;;;;;;;;;5025175;28;20056;-70
2021/12/02 11:23:06;;;;;;;1.60;1.50;;;;;;;;;;5024985;28;20048;-67
2021/12/02 11:25:35;;;;;;;2.75;1.95;;;;;;;;;;5024441;28;20046;-68
2021/12/02 11:28:06;;;;;;;3.08;2.10;;;;;;;;;;5022355;28;20060;-69
2021/12/02 11:30:34;;;;;;;1.90;1.50;;;;;;;;;;5026699;28;20046;-67
2021/12/02 11:33:21;;;;;;;2.83;2.03;;;;;;;;;;5022359;28;20049;-68
2021/12/02 11:35:48;;;;;;;3.65;2.35;;;;;;;;;;5013255;28;20041;-69
2021/12/02 11:38:28;;;;;;;2.92;1.80;;;;;;;;;;5010902;28;20057;-67
2021/12/02 11:40:57;;;;;;;2.53;1.98;;;;;;;;;;4997523;28;20050;-64
2021/12/02 11:43:27;;;;;;;3.17;1.63;;;;;;;;;;4996596;28;20053;-64
2021/12/02 11:45:56;;;;;;;2.10;1.70;;;;;;;;;;5002096;28;20500;-65
2021/12/02 11:48:26;;;;;;;3.17;1.83;;;;;;;;;;5001011;28;20061;-66
2021/12/02 11:51:03;;;;;;;3.00;2.15;;;;;;;;;;4999117;28;20133;-65
2021/12/02 11:53:29;;;;;;;5.45;2.67;;;;;;;;;;4997016;28;20109;-65
2021/12/02 11:55:59;;;;;;;2.60;2.20;;;;;;;;;;4999142;28;20045;-65
2021/12/02 11:58:26;;;;;;;3.97;3.03;;;;;;;;;;5001090;28;20058;-65
2021/12/02 12:00:53;;;;;;;4.07;2.08;;;;;;;;;;4997535;28;20054;-66
2021/12/02 12:03:31;;;;;;;2.55;1.67;;;;;;;;;;4999640;28;20101;-66
2021/12/02 12:06:00;;;;;;;2.15;0.93;;;;;;;;;;4996497;28;20046;-65
2021/12/02 12:08:33;;;;;;;2.08;1.00;;;;;;;;;;5001324;28;20046;-67
2021/12/02 12:11:24;;;;;;;1.45;1.08;;;;;;;;;;4999945;28;20050;-65
2021/12/02 12:13:52;;;;;;;1.55;1.13;;;;;;;;;;4996641;28;20046;-67
2021/12/02 12:16:28;;;;;;;3.88;1.10;;;;;;;;;;4994708;28;20057;-69
2021/12/02 12:19:12;;;;;;;1.42;1.30;;;;;;;;;;4998408;28;20141;-69
2021/12/02 12:21:40;;;;;;;2.35;1.58;;;;;;;;;;4999662;28;20466;-69
2021/12/02 12:24:08;;;;;;;4.10;1.30;;;;;;;;;;4998511;28;20050;-68
2021/12/02 12:26:37;;;;;;;1.48;1.13;;;;;;;;;;4999584;28;20501;-69
2021/12/02 12:29:07;;;;;;;1.63;1.25;;;;;;;;;;4997955;28;20092;-65
2021/12/02 12:31:48;;;;;;;2.13;1.08;;;;;;;;;;4997068;28;20081;-67
2021/12/02 12:37:23;;;;;;;1.48;0.95;;;;;;;;;;5000878;28;20109;-68
2021/12/02 12:40:15;;;;;;;1.30;0.90;;;;;;;;;;5005571;28;20046;-68
2021/12/02 12:43:12;;;;;;;1.08;0.90;;;;;;;;;;5005812;28;20049;-67
2021/12/02 12:45:42;;;;;;;3.20;1.50;;;;;;;;;;5003292;28;20097;-68
2021/12/02 12:48:11;;;;;;;3.05;2.35;;;;;;;;;;5004767;28;20050;-67
2021/12/02 12:50:40;;;;;;;2.78;1.52;;;;;;;;;;5000292;28;20552;-67
2021/12/02 12:53:15;;;;;;;2.40;1.48;;;;;;;;;;5004396;28;20103;-67
2021/12/02 12:55:50;;;;;;;2.25;1.60;;;;;;;;;;5001668;28;20052;-68
2021/12/02 12:58:20;;;;;;;3.25;1.70;;;;;;;;;;5003729;28;20050;-68
2021/12/02 13:00:48;;;;;;;3.78;1.52;;;;;;;;;;5003654;28;20057;-66
2021/12/02 13:03:26;;;;;;;15.90;6.90;;;;;;;;;;5000918;28;20050;-66
2021/12/02 13:05:58;;;;;;;4.85;2.55;;;;;;;;;;5005648;28;20085;-64
2021/12/02 13:08:26;;;;;;;3.33;1.70;;;;;;;;;;5002256;28;20050;-64
2021/12/02 13:10:59;;;;;;;2.75;1.85;;;;;;;;;;4999837;28;20502;-64
2021/12/02 13:13:32;;;;;;;4.28;1.80;;;;;;;;;;5001847;28;20100;-64
2021/12/02 13:16:15;;;;;;;5.50;2.28;;;;;;;;;;5001223;28;20219;-64
2021/12/02 13:18:48;;;;;;;2.70;1.85;;;;;;;;;;4999887;28;20050;-64
2021/12/02 13:21:21;;;;;;;5.28;2.78;;;;;;;;;;5003086;28;20050;-64
2021/12/02 13:23:59;;;;;;;3.35;1.90;;;;;;;;;;5000552;28;20069;-64
2021/12/02 13:26:36;;;;;;;3.60;2.28;;;;;;;;;;5000095;28;20043;-64
2021/12/02 13:29:10;;;;;;;2.75;1.80;;;;;;;;;;5002862;28;20054;-64
2021/12/02 13:31:39;;;;;;;2.90;1.70;;;;;;;;;;5001561;28;20051;-64
2021/12/02 13:34:10;;;;;;;2.60;1.55;;;;;;;;;;4998629;28;20054;-64
2021/12/02 13:36:45;;;;;;;3.95;2.10;;;;;;;;;;5001174;28;20558;-64
2021/12/02 13:39:29;;;;;;;2.88;2.30;;;;;;;;;;5001957;28;20150;-64
2021/12/02 13:42:06;;;;;;;2.60;2.10;;;;;;;;;;4999501;28;20120;-64
2021/12/02 13:44:36;;;;;;;3.10;2.25;;;;;;;;;;5002761;28;20057;-64
2021/12/02 13:47:08;;;;;;;4.50;2.90;;;;;;;;;;5001184;28;20104;-64
2021/12/02 13:49:39;;;;;;;6.45;2.70;;;;;;;;;;4998479;28;20050;-64
2021/12/02 13:52:21;;;;;;;3.58;3.10;;;;;;;;;;5003651;28;20050;-64
2021/12/02 13:54:54;;;;;;;3.85;2.88;;;;;;;;;;4993217;28;20046;-64
2021/12/02 13:57:25;;;;;;;;;;;;;;;;;;4999555;28;20460;-65
2021/12/02 13:59:52;;;;;;;1.80;1.48;;;;;;;;;;5004545;28;19953;-66
2021/12/02 14:02:22;;;;;;;2.20;1.42;;;;;;;;;;5000049;28;20101;-66
2021/12/02 14:04:50;;;;;;;2.10;1.40;;;;;;;;;;5000440;28;20050;-64
2021/12/02 14:07:21;;;;;;;2.60;1.77;;;;;;;;;;5000177;28;20042;-64
2021/12/02 14:09:51;;;;;;;3.92;1.90;;;;;;;;;;4998519;28;20050;-64
2021/12/02 14:12:21;;;;;;;3.03;1.90;;;;;;;;;;5003086;28;20506;-64
2021/12/02 14:15:08;;;;;;;3.92;1.50;;;;;;;;;;4999074;28;20097;-64
2021/12/02 14:17:59;;;;;;;2.55;1.60;;;;;;;;;;4998521;28;20532;-64
2021/12/02 14:20:39;;;;;;;4.03;2.78;;;;;;;;;;5002189;28;20390;-64
2021/12/02 14:23:15;;;;;;;6.75;2.45;;;;;;;;;;5001786;28;20081;-64
2021/12/02 14:25:53;;;;;;;5.43;2.97;;;;;;;;;;4999203;28;20413;-64
2021/12/02 14:28:37;;;;;;;10.88;3.85;;;;;;;;;;4998854;28;20105;-64
2021/12/02 14:31:04;;;;;;;;;;;;;;;;;;5002126;28;20461;-64
2021/12/02 14:33:38;;;;;;;17.23;6.18;;;;;;;;;;5000784;28;19988;-64
2021/12/02 14:36:08;;;;;;;11.88;4.63;;;;;;;;;;4998512;28;20101;-64
2021/12/02 14:38:39;;;;;;;16.80;6.57;;;;;;;;;;4993553;28;20395;-64
2021/12/02 14:41:12;;;;;;;17.48;5.93;;;;;;;;;;4993012;28;20050;-64
2021/12/02 14:43:58;;;;;;;15.75;5.93;;;;;;;;;;4998399;28;20054;-64
2021/12/02 14:46:26;;;;;;;13.13;5.13;;;;;;;;;;4998171;28;20104;-64
2021/12/02 14:48:59;;;;;;;10.10;4.28;;;;;;;;;;4999389;28;20512;-64
2021/12/02 14:51:25;;;;;;;15.13;4.43;;;;;;;;;;4998745;28;20382;-64
2021/12/02 14:53:54;;;;;;;11.75;5.65;;;;;;;;;;5000135;28;20074;-65
2021/12/02 14:56:34;;;;;;;9.10;4.43;;;;;;;;;;4998103;28;20066;-64
2021/12/02 14:59:23;;;;;;;11.43;4.30;;;;;;;;;;5004669;28;20050;-64
2021/12/02 15:02:02;;;;;;;16.25;6.10;;;;;;;;;;5000711;28;20149;-64
2021/12/02 15:04:31;;;;;;;15.85;6.57;;;;;;;;;;5001508;28;20058;-65
2021/12/02 15:07:11;;;;;;;18.02;6.65;;;;;;;;;;5000617;28;20120;-64
2021/12/02 15:09:48;;;;;;;7.85;4.20;;;;;;;;;;5001164;28;20089;-64
2021/12/02 15:12:16;;;;;;;3.75;2.97;;;;;;;;;;5002943;28;20112;-64
2021/12/02 15:15:13;;;;;;;6.30;3.90;;;;;;;;;;4997464;28;20058;-64
2021/12/02 15:17:55;;;;;;;5.43;3.00;;;;;;;;;;4998084;28;20096;-64
2021/12/02 15:20:48;;;;;;;4.90;3.10;;;;;;;;;;5004187;28;20084;-65
2021/12/02 15:23:26;;;;;;;4.88;2.95;;;;;;;;;;4989802;28;20117;-69
2021/12/02 15:26:07;;;;;;;3.42;2.17;;;;;;;;;;5000543;28;20397;-71
2021/12/02 15:28:44;;;;;;;2.13;1.75;;;;;;;;;;4999340;28;20059;-68
2021/12/02 15:31:13;;;;;;;1.50;1.25;;;;;;;;;;4998620;28;20053;-70
2021/12/02 15:33:41;;;;;;;1.50;1.20;;;;;;;;;;4999320;28;20050;-69
2021/12/02 15:36:13;;;;;;;1.42;1.30;;;;;;;;;;4996874;28;20046;-70